createdAt,value
2022-08-30T00:01:05.357Z,3.05
2022-08-30T00:06:09.698Z,3.95
2022-08-30T00:11:14.484Z,3.42
2022-08-30T00:16:17.596Z,4.20
2022-08-30T00:21:19.722Z,4.28
2022-08-30T00:26:22.628Z,3.75
2022-08-30T00:31:24.550Z,3.67
2022-08-30T00:36:26.646Z,3.97
2022-08-30T00:41:37.445Z,4.30
2022-08-30T00:46:39.429Z,4.03
2022-08-30T00:52:01.928Z,4.45
2022-08-30T00:57:05.117Z,4.20
2022-08-30T01:02:07.547Z,4.68
2022-08-30T01:07:09.469Z,4.55
2022-08-30T01:12:11.843Z,5.15
2022-08-30T01:17:14.655Z,4.40
2022-08-30T01:22:45.354Z,4.32
2022-08-30T01:27:56.004Z,4.35
2022-08-30T01:33:01.275Z,4.65
2022-08-30T01:38:03.217Z,4.40
2022-08-30T01:43:05.741Z,4.35
2022-08-30T01:48:08.498Z,3.80
2022-08-30T01:53:13.053Z,4.55
2022-08-30T01:58:15.318Z,4.45
2022-08-30T02:03:17.518Z,4.60
2022-08-30T02:08:19.478Z,4.70
2022-08-30T02:13:21.388Z,4.45
2022-08-30T02:18:25.252Z,4.53
2022-08-30T02:23:27.969Z,4.10
2022-08-30T02:28:30.140Z,4.20
2022-08-30T02:33:32.199Z,4.03
2022-08-30T02:38:34.504Z,5.40
2022-08-30T02:43:36.389Z,4.78
2022-08-30T02:48:38.376Z,4.63
2022-08-30T02:53:42.493Z,4.60
2022-08-30T02:58:45.337Z,4.65
2022-08-30T03:03:47.327Z,4.57
2022-08-30T03:08:49.295Z,4.50
2022-08-30T03:13:51.359Z,4.63
2022-08-30T03:18:53.308Z,4.60
2022-08-30T03:23:55.148Z,3.72
2022-08-30T03:28:57.003Z,4.00
2022-08-30T03:33:58.942Z,4.10
2022-08-30T03:39:00.822Z,4.07
2022-08-30T03:44:04.355Z,4.32
2022-08-30T03:49:07.979Z,4.63
2022-08-30T03:54:10.134Z,4.35
2022-08-30T03:59:12.099Z,4.55
2022-08-30T04:04:18.657Z,4.68
2022-08-30T04:09:23.542Z,9.25
2022-08-30T04:14:25.418Z,7.13
2022-08-30T04:19:27.302Z,10.70
2022-08-30T04:24:29.242Z,7.88
2022-08-30T04:29:31.482Z,7.97
2022-08-30T04:34:33.386Z,6.28
2022-08-30T04:39:35.329Z,4.60
2022-08-30T04:44:37.363Z,5.72
2022-08-30T04:49:39.488Z,6.70
2022-08-30T04:54:41.419Z,6.30
2022-08-30T04:59:43.279Z,5.45
2022-08-30T05:05:03.985Z,5.35
2022-08-30T05:10:10.961Z,5.28
2022-08-30T05:15:13.678Z,5.45
2022-08-30T05:20:16.240Z,4.63
2022-08-30T05:25:20.774Z,4.25
2022-08-30T05:30:24.100Z,5.18
2022-08-30T05:35:26.091Z,5.05
2022-08-30T05:40:29.182Z,4.70
2022-08-30T05:45:31.285Z,4.50
2022-08-30T05:50:34.975Z,6.03
2022-08-30T05:55:41.522Z,5.10
2022-08-30T06:00:43.400Z,5.93
2022-08-30T06:10:55.244Z,5.70
2022-08-30T06:15:57.430Z,5.25
2022-08-30T06:20:59.387Z,5.65
2022-08-30T06:26:07.762Z,5.10
2022-08-30T06:31:12.461Z,4.88
2022-08-30T06:36:17.621Z,4.22
2022-08-30T06:41:22.502Z,4.25
2022-08-30T06:46:31.047Z,5.32
2022-08-30T06:51:37.111Z,4.50
2022-08-30T06:56:40.210Z,4.50
2022-08-30T07:01:44.381Z,3.88
2022-08-30T07:06:46.593Z,3.72
2022-08-30T07:11:48.664Z,3.40
2022-08-30T07:16:51.334Z,3.30
2022-08-30T07:21:54.135Z,3.60
2022-08-30T07:26:56.012Z,3.20
2022-08-30T07:31:57.906Z,3.35
2022-08-30T07:36:59.925Z,2.80
2022-08-30T07:42:02.259Z,3.15
2022-08-30T07:47:05.628Z,3.05
2022-08-30T07:52:07.661Z,2.72
2022-08-30T07:57:09.559Z,2.60
2022-08-30T08:02:11.455Z,2.65
2022-08-30T08:07:13.365Z,3.33
2022-08-30T08:12:15.350Z,2.78
2022-08-30T08:17:17.293Z,3.05
2022-08-30T08:22:21.553Z,3.10
2022-08-30T08:27:24.856Z,3.38
2022-08-30T08:32:26.763Z,3.00
2022-08-30T08:37:28.654Z,3.22
2022-08-30T08:42:54.778Z,3.58
2022-08-30T08:48:04.060Z,3.28
2022-08-30T08:53:46.651Z,3.40
2022-08-30T08:58:53.340Z,3.30
2022-08-30T09:03:57.399Z,3.00
2022-08-30T09:08:59.556Z,3.67
2022-08-30T09:14:01.459Z,2.95
2022-08-30T09:19:03.869Z,2.85
2022-08-30T09:24:08.759Z,2.70
2022-08-30T09:29:18.429Z,2.75
2022-08-30T09:34:23.959Z,2.80
2022-08-30T09:39:34.817Z,2.15
2022-08-30T09:44:38.227Z,2.25
2022-08-30T09:49:45.650Z,2.20
2022-08-30T09:55:21.352Z,1.73
2022-08-30T10:00:29.025Z,2.00
2022-08-30T10:05:33.565Z,2.33
2022-08-30T10:10:46.798Z,2.25
2022-08-30T10:15:58.693Z,1.88
2022-08-30T10:21:00.535Z,2.15
2022-08-30T10:26:14.653Z,2.22
2022-08-30T10:31:29.611Z,2.63
2022-08-30T10:41:44.689Z,2.20
2022-08-30T10:47:22.953Z,3.00
2022-08-30T10:52:44.381Z,2.78
2022-08-30T10:57:48.641Z,3.10
2022-08-30T11:03:05.680Z,2.15
2022-08-30T11:08:22.184Z,2.40
2022-08-30T11:13:30.002Z,2.17
2022-08-30T11:18:50.926Z,2.20
2022-08-30T11:24:21.115Z,2.25
2022-08-30T11:29:43.823Z,2.13
2022-08-30T11:34:46.555Z,2.03
2022-08-30T11:39:48.997Z,2.00
2022-08-30T11:44:50.943Z,2.47
2022-08-30T11:50:09.933Z,2.10
2022-08-30T11:55:34.411Z,2.75
2022-08-30T12:00:44.904Z,2.05
2022-08-30T12:06:07.271Z,2.22
2022-08-30T12:11:12.405Z,2.22
2022-08-30T12:16:22.093Z,1.92
2022-08-30T12:21:31.177Z,2.53
2022-08-30T12:26:44.926Z,1.90
2022-08-30T12:31:52.798Z,1.73
2022-08-30T12:37:05.564Z,2.00
2022-08-30T12:42:20.447Z,1.83
2022-08-30T12:47:28.543Z,2.17
2022-08-30T12:52:40.839Z,2.45
2022-08-30T12:58:10.128Z,1.52
2022-08-30T13:03:54.182Z,1.88
2022-08-30T13:08:56.137Z,2.10
2022-08-30T13:14:20.983Z,2.10
2022-08-30T13:19:36.054Z,2.53
2022-08-30T13:24:37.909Z,2.78
2022-08-30T13:29:40.602Z,1.95
2022-08-30T13:34:45.351Z,2.40
2022-08-30T13:39:47.292Z,2.30
2022-08-30T13:44:49.993Z,1.98
2022-08-30T13:49:51.880Z,1.98
2022-08-30T13:54:55.647Z,2.47
2022-08-30T13:59:57.742Z,2.35
2022-08-30T14:05:02.853Z,2.35
2022-08-30T14:15:28.738Z,2.47
2022-08-30T14:20:31.166Z,2.20
2022-08-30T14:25:33.391Z,2.13
2022-08-30T14:30:35.430Z,2.05
2022-08-30T14:35:37.378Z,1.77
2022-08-30T14:40:41.482Z,1.70
2022-08-30T14:45:43.775Z,2.00
2022-08-30T14:50:45.778Z,1.90
2022-08-30T14:55:47.659Z,1.98
2022-08-30T15:00:52.626Z,1.95
2022-08-30T15:05:54.543Z,1.77
2022-08-30T15:10:56.527Z,1.65
2022-08-30T15:15:58.473Z,1.75
2022-08-30T15:21:00.346Z,1.90
2022-08-30T15:26:02.721Z,2.20
2022-08-30T15:31:08.701Z,2.10
2022-08-30T15:36:12.648Z,2.30
2022-08-30T15:41:15.675Z,1.70
2022-08-30T15:46:29.937Z,1.80
2022-08-30T15:51:41.153Z,1.92
2022-08-30T15:56:44.908Z,1.73
2022-08-30T16:01:47.662Z,1.98
2022-08-30T16:06:50.097Z,1.85
2022-08-30T16:11:54.442Z,2.10
2022-08-30T16:16:57.118Z,1.80
2022-08-30T16:21:59.547Z,2.10
2022-08-30T16:27:01.561Z,1.88
2022-08-30T16:32:03.794Z,1.95
2022-08-30T16:37:05.672Z,1.67
2022-08-30T16:42:08.012Z,1.80
2022-08-30T16:47:13.332Z,2.03
2022-08-30T16:52:16.701Z,1.88
2022-08-30T16:57:20.154Z,1.92
2022-08-30T17:02:22.223Z,2.25
2022-08-30T17:07:24.274Z,1.92
2022-08-30T17:12:26.360Z,2.00
2022-08-30T17:17:28.277Z,2.17
2022-08-30T17:22:31.648Z,2.03
2022-08-30T17:27:33.703Z,2.70
2022-08-30T17:32:35.960Z,2.15
2022-08-30T17:37:38.140Z,2.28
2022-08-30T17:42:40.883Z,2.33
2022-08-30T17:47:43.746Z,2.35
2022-08-30T17:52:45.779Z,1.90
2022-08-30T17:57:47.838Z,2.03
2022-08-30T18:02:53.108Z,1.90
2022-08-30T18:07:55.470Z,2.15
2022-08-30T18:12:58.735Z,2.40
2022-08-30T18:18:00.745Z,2.30
2022-08-30T18:23:02.807Z,2.50
2022-08-30T18:28:07.047Z,2.47
2022-08-30T18:33:08.905Z,1.98
2022-08-30T18:38:11.047Z,2.15
2022-08-30T18:43:13.273Z,2.22
2022-08-30T18:48:16.034Z,2.20
2022-08-30T18:53:28.640Z,2.85
2022-08-30T18:58:31.210Z,2.25
2022-08-30T19:03:33.979Z,2.28
2022-08-30T19:08:36.514Z,2.47
2022-08-30T19:13:39.270Z,2.42
2022-08-30T19:18:41.585Z,2.58
2022-08-30T19:23:43.648Z,2.33
2022-08-30T19:28:45.506Z,2.40
2022-08-30T19:33:47.686Z,2.28
2022-08-30T19:38:49.585Z,2.50
2022-08-30T19:43:51.592Z,2.88
2022-08-30T19:48:53.462Z,2.90
2022-08-30T19:53:56.327Z,3.00
2022-08-30T19:59:00.653Z,3.17
2022-08-30T20:04:02.846Z,3.13
2022-08-30T20:09:05.539Z,2.70
2022-08-30T20:14:13.546Z,2.70
2022-08-30T20:19:18.561Z,2.83
2022-08-30T20:24:25.095Z,2.83
2022-08-30T20:29:28.558Z,2.83
2022-08-30T20:34:30.581Z,2.20
2022-08-30T20:39:32.459Z,2.97
2022-08-30T20:44:34.818Z,2.55
2022-08-30T20:49:37.224Z,3.22
2022-08-30T20:54:39.480Z,2.60
2022-08-30T20:59:41.337Z,3.47
2022-08-30T21:04:43.213Z,3.00
2022-08-30T21:09:45.787Z,3.15
2022-08-30T21:14:47.704Z,3.55
2022-08-30T21:19:49.666Z,3.03
2022-08-30T21:24:54.669Z,2.88
2022-08-30T21:29:57.463Z,2.80
2022-08-30T21:35:18.006Z,3.33
2022-08-30T21:40:20.231Z,3.13
2022-08-30T21:45:22.286Z,2.75
2022-08-30T21:50:24.152Z,3.35
2022-08-30T21:55:26.028Z,3.00
2022-08-30T22:00:27.929Z,3.05
2022-08-30T22:05:29.762Z,3.03
2022-08-30T22:10:33.380Z,2.75
2022-08-30T22:15:35.409Z,3.15
2022-08-30T22:20:39.880Z,2.80
2022-08-30T22:25:43.255Z,3.47
2022-08-30T22:30:45.570Z,3.45
2022-08-30T22:35:47.444Z,3.05
2022-08-30T22:40:54.164Z,3.17
2022-08-30T22:45:57.970Z,3.33
2022-08-30T22:50:59.845Z,2.75
2022-08-30T22:56:08.756Z,3.30
2022-08-30T23:01:22.821Z,3.70
2022-08-30T23:06:25.329Z,3.17
2022-08-30T23:11:27.531Z,3.58
2022-08-30T23:16:32.632Z,3.38
2022-08-30T23:21:34.717Z,3.20
2022-08-30T23:26:55.502Z,3.30
2022-08-30T23:32:16.355Z,2.95
2022-08-30T23:42:57.015Z,3.40
2022-08-30T23:48:17.366Z,3.50
2022-08-30T23:53:37.779Z,3.33
2022-08-30T23:59:01.792Z,3.22
